Time;durP1;ratioP1;P1;durP2;ratioP2;P2;SDS_P1;SDS_P2;PMS_P1;PMS_P2;Temp;Humidity;BMP_temperature;BMP_pressure;BME280_temperature;BME280_humidity;BME280_pressure;Samples;Min_cycle;Max_cycle;Signal;HPM_P1;HPM_P2
2022/05/01 00:01:34;;;;;;;11.38;4.70;;;;;;;7.40;100.00;97915.41;5084645;28;20049;-88
2022/05/01 00:04:00;;;;;;;9.48;4.80;;;;;;;7.38;100.00;97927.88;5092586;28;20059;-88
2022/05/01 00:06:25;;;;;;;10.48;4.88;;;;;;;7.40;100.00;97919.84;5076384;28;20035;-87
2022/05/01 00:08:51;;;;;;;9.65;5.00;;;;;;;7.25;100.00;97907.22;5092768;28;20491;-88
2022/05/01 00:11:17;;;;;;;7.15;4.45;;;;;;;7.43;100.00;97925.03;5092708;28;20521;-88
2022/05/01 00:13:46;;;;;;;8.70;5.00;;;;;;;7.34;100.00;97918.34;5092887;28;20484;-88
2022/05/01 00:16:12;;;;;;;11.38;6.38;;;;;;;7.42;100.00;97928.63;5084203;28;20512;-88
2022/05/01 00:18:38;;;;;;;12.75;6.00;;;;;;;7.47;100.00;97929.31;5083711;28;20029;-87
2022/05/01 00:21:04;;;;;;;10.70;6.25;;;;;;;7.48;100.00;97931.03;5075454;28;20089;-89
2022/05/01 00:23:30;;;;;;;9.77;5.50;;;;;;;7.45;100.00;97923.16;5092219;28;20544;-88
2022/05/01 00:25:55;;;;;;;10.38;5.28;;;;;;;7.43;100.00;97931.25;5088926;28;20036;-88
2022/05/01 00:28:21;;;;;;;7.50;5.72;;;;;;;7.41;100.00;97921.59;5092316;28;20077;-88
2022/05/01 00:30:47;;;;;;;9.10;5.97;;;;;;;7.34;100.00;97921.00;5076298;28;20039;-88
2022/05/01 00:38:40;;;;;;;12.55;6.53;;;;;;;7.32;100.00;97943.28;5090349;28;20096;-88
2022/05/01 00:41:11;;;;;;;9.00;5.85;;;;;;;7.39;100.00;97955.38;5075669;28;20474;-88
2022/05/01 00:44:08;;;;;;;10.55;6.22;;;;;;;7.38;100.00;97953.66;5076526;28;20092;-88
2022/05/01 00:46:42;;;;;;;9.95;6.45;;;;;;;7.29;100.00;97954.88;5086152;28;20110;-89
2022/05/01 00:49:10;;;;;;;8.82;5.93;;;;;;;7.21;100.00;97945.50;5075889;28;20028;-88
2022/05/01 00:51:44;;;;;;;8.63;5.82;;;;;;;7.19;100.00;97960.69;5089670;28;20024;-88
2022/05/01 00:54:10;;;;;;;6.75;5.30;;;;;;;7.17;100.00;97959.91;5075563;28;20567;-88
2022/05/01 00:56:40;;;;;;;6.90;5.07;;;;;;;7.07;100.00;97952.25;5089916;28;20028;-89
2022/05/01 00:59:06;;;;;;;8.18;6.07;;;;;;;6.94;100.00;97945.75;5091747;28;20035;-89
2022/05/01 01:01:32;;;;;;;17.50;5.97;;;;;;;6.95;100.00;97944.78;5089649;28;20030;-90
2022/05/01 01:03:57;;;;;;;10.13;6.25;;;;;;;6.80;100.00;97934.78;5080368;28;20411;-89
2022/05/01 01:06:23;;;;;;;12.80;6.05;;;;;;;6.86;100.00;97933.69;5073880;28;20039;-88
2022/05/01 01:08:49;;;;;;;9.45;6.57;;;;;;;6.72;100.00;97925.41;5096723;28;20036;-88
2022/05/01 01:11:14;;;;;;;8.77;6.28;;;;;;;6.69;100.00;97930.84;5097056;28;20035;-88
2022/05/01 01:13:40;;;;;;;10.77;6.70;;;;;;;6.69;100.00;97926.41;5096297;28;20020;-88
2022/05/01 01:16:10;;;;;;;10.13;5.53;;;;;;;6.74;100.00;97927.06;5093949;28;20026;-89
2022/05/01 01:18:36;;;;;;;12.73;6.65;;;;;;;6.68;100.00;97914.03;5096808;28;20043;-89
2022/05/01 01:21:01;;;;;;;13.95;7.70;;;;;;;6.65;100.00;97907.97;5096313;28;20063;-89
2022/05/01 01:23:28;;;;;;;11.07;7.50;;;;;;;6.59;100.00;97900.25;5079327;28;20019;-89
2022/05/01 01:25:54;;;;;;;14.23;7.78;;;;;;;6.63;100.00;97897.41;5096679;28;20087;-89
2022/05/01 01:28:21;;;;;;;13.73;8.20;;;;;;;6.59;100.00;97903.78;5096129;28;20098;-89
2022/05/01 01:33:31;;;;;;;20.02;8.80;;;;;;;6.68;100.00;97911.38;5096321;28;20030;-88
2022/05/01 01:36:02;;;;;;;10.02;7.18;;;;;;;6.62;100.00;97906.31;5096652;28;20483;-88
2022/05/01 01:38:28;;;;;;;11.20;7.80;;;;;;;6.64;100.00;97900.94;5095884;28;20051;-88
2022/05/01 01:40:55;;;;;;;12.25;6.97;;;;;;;6.71;100.00;97905.94;5095588;28;20028;-88
2022/05/01 01:43:26;;;;;;;12.52;7.68;;;;;;;6.74;100.00;97919.09;5078645;28;20036;-88
2022/05/01 01:45:52;;;;;;;12.02;7.38;;;;;;;6.69;100.00;97897.16;5095751;28;20032;-89
2022/05/01 01:48:19;;;;;;;12.23;7.60;;;;;;;6.80;100.00;97902.06;5095170;28;20055;-89
2022/05/01 01:51:12;;;;;;;18.45;9.02;;;;;;;6.77;100.00;97904.81;5078380;28;20028;-88
2022/05/01 01:53:38;;;;;;;12.77;8.45;;;;;;;6.75;100.00;97891.59;5094254;28;20031;-88
2022/05/01 01:56:04;;;;;;;13.27;8.38;;;;;;;6.78;100.00;97895.91;5104812;28;20118;-88
2022/05/01 01:58:30;;;;;;;15.45;8.63;;;;;;;6.80;100.00;97897.56;5077644;28;20058;-87
2022/05/01 02:00:57;;;;;;;14.02;9.27;;;;;;;6.72;100.00;97897.03;5098580;28;20027;-88
2022/05/01 02:03:23;;;;;;;11.50;8.27;;;;;;;6.61;100.00;97886.00;5076940;28;20024;-87
2022/05/01 02:05:50;;;;;;;13.13;8.02;;;;;;;6.66;100.00;97893.75;5094140;28;20032;-87
2022/05/01 02:08:16;;;;;;;10.25;7.35;;;;;;;6.58;100.00;97891.44;5094107;28;20032;-87
2022/05/01 02:10:44;;;;;;;15.73;8.95;;;;;;;6.57;100.00;97905.63;5077285;28;20059;-88
2022/05/01 02:13:10;;;;;;;12.93;7.53;;;;;;;6.44;100.00;97899.94;5096293;28;20028;-88
2022/05/01 02:15:44;;;;;;;12.80;8.38;;;;;;;6.29;100.00;97881.09;5076424;28;20080;-88
2022/05/01 02:18:35;;;;;;;10.95;6.90;;;;;;;6.23;100.00;97894.63;5104702;28;20073;-88
2022/05/01 02:23:45;;;;;;;9.15;6.68;;;;;;;5.92;100.00;97879.88;5095295;28;20407;-89
2022/05/01 02:26:10;;;;;;;11.82;7.45;;;;;;;5.87;100.00;97875.66;5093869;28;20019;-89
2022/05/01 02:28:36;;;;;;;9.07;6.28;;;;;;;5.87;100.00;97873.88;5094923;28;20396;-87
2022/05/01 02:31:02;;;;;;;9.95;6.82;;;;;;;5.87;100.00;97884.50;5093766;28;20115;-88
2022/05/01 02:33:27;;;;;;;10.68;6.88;;;;;;;5.80;100.00;97880.31;5077030;28;20028;-88
2022/05/01 02:35:53;;;;;;;9.38;6.97;;;;;;;5.78;100.00;97887.44;5091394;28;20153;-88
2022/05/01 02:38:19;;;;;;;13.55;8.20;;;;;;;5.78;100.00;97886.59;5093239;28;20488;-87
2022/05/01 02:40:44;;;;;;;13.20;7.18;;;;;;;5.76;100.00;97878.69;5093873;28;20019;-89
2022/05/01 02:43:10;;;;;;;10.20;6.68;;;;;;;5.75;100.00;97876.09;5074604;28;20028;-89
2022/05/01 02:45:37;;;;;;;13.07;6.72;;;;;;;5.68;100.00;97872.81;5071814;28;20035;-88
2022/05/01 02:48:03;;;;;;;9.77;6.95;;;;;;;5.82;100.00;97873.13;5076511;28;20521;-89
2022/05/01 02:50:28;;;;;;;10.65;6.75;;;;;;;5.81;100.00;97865.25;5093319;28;20028;-88
2022/05/01 02:52:55;;;;;;;10.57;6.78;;;;;;;5.79;100.00;97857.31;5090050;28;20039;-87
2022/05/01 02:55:21;;;;;;;8.60;6.10;;;;;;;5.85;100.00;97869.50;5075314;28;20028;-89
2022/05/01 02:57:47;;;;;;;9.20;6.35;;;;;;;5.70;100.00;97852.38;5072085;28;20034;-88
2022/05/01 03:00:16;;;;;;;17.40;6.55;;;;;;;5.87;100.00;97873.88;5094216;28;20027;-88
2022/05/01 03:02:55;;;;;;;8.48;6.13;;;;;;;5.85;100.00;97872.16;5094958;28;20020;-88
2022/05/01 03:05:24;;;;;;;10.43;6.03;;;;;;;5.95;100.00;97885.06;5091767;28;20038;-89
2022/05/01 03:07:50;;;;;;;10.80;6.00;;;;;;;5.89;100.00;97869.38;5076975;28;20410;-88
2022/05/01 03:10:15;;;;;;;13.70;5.95;;;;;;;5.75;100.00;97853.06;5072611;28;20115;-89
2022/05/01 03:12:41;;;;;;;9.88;6.72;;;;;;;5.76;100.00;97862.75;5091957;28;20051;-90
2022/05/01 03:15:08;;;;;;;10.25;6.30;;;;;;;5.73;100.00;97889.41;5110358;28;20545;-88
2022/05/01 03:23:06;;;;;;;14.88;7.15;;;;;;;5.78;100.00;97875.97;5093307;28;20065;-88
2022/05/01 03:25:32;;;;;;;12.85;7.53;;;;;;;5.79;100.00;97890.97;5075416;28;20108;-87
2022/05/01 03:27:59;;;;;;;15.38;8.25;;;;;;;5.71;100.00;97883.31;5092621;28;20487;-87
2022/05/01 03:30:24;;;;;;;14.20;9.73;;;;;;;5.76;100.00;97889.28;5110097;28;20459;-87
2022/05/01 03:32:51;;;;;;;24.50;11.00;;;;;;;5.70;100.00;97876.25;5096508;28;20031;-87
2022/05/01 03:35:18;;;;;;;21.65;11.63;;;;;;;5.82;100.00;97894.38;5096209;28;20028;-88
2022/05/01 03:37:44;;;;;;;22.77;11.27;;;;;;;5.88;100.00;97888.88;5074222;28;20051;-88
2022/05/01 03:40:13;;;;;;;14.75;9.05;;;;;;;5.97;100.00;97903.56;5092242;28;20028;-88
2022/05/01 03:42:38;;;;;;;9.82;6.55;;;;;;;5.84;100.00;97902.28;5096685;28;20045;-88
2022/05/01 03:45:04;;;;;;;18.20;7.43;;;;;;;5.90;100.00;97913.59;5087062;28;20069;-88
2022/05/01 03:47:32;;;;;;;13.05;7.10;;;;;;;5.83;100.00;97895.25;5077110;28;20035;-88
2022/05/01 03:49:58;;;;;;;23.35;8.45;;;;;;;5.94;100.00;97899.25;5092436;28;20016;-88
2022/05/01 03:52:24;;;;;;;13.32;7.47;;;;;;;5.98;100.00;97898.22;5082897;28;20122;-89
2022/05/01 03:54:50;;;;;;;15.90;9.15;;;;;;;6.04;100.00;97881.19;5082957;28;20019;-89
2022/05/01 03:57:16;;;;;;;22.52;8.50;;;;;;;6.17;100.00;97900.16;5093149;28;20084;-89
2022/05/01 03:59:42;;;;;;;14.02;8.48;;;;;;;6.17;100.00;97921.41;5091926;28;20016;-88
2022/05/01 04:02:07;;;;;;;21.65;9.35;;;;;;;6.20;100.00;97915.97;5090717;28;20028;-88
2022/05/01 04:04:33;;;;;;;15.60;9.63;;;;;;;6.25;100.00;97916.66;5096688;28;20502;-87
2022/05/01 04:06:59;;;;;;;23.98;12.15;;;;;;;6.27;100.00;97920.13;5091981;28;20112;-87
2022/05/01 04:09:24;;;;;;;16.80;11.05;;;;;;;6.32;100.00;97923.47;5090826;28;20168;-89
2022/05/01 04:11:53;;;;;;;18.77;11.82;;;;;;;6.31;100.00;97911.97;5087330;28;20031;-88
2022/05/01 04:14:19;;;;;;;17.52;9.98;;;;;;;6.37;100.00;97911.72;5073429;28;20054;-87
2022/05/01 04:16:44;;;;;;;16.73;10.02;;;;;;;6.47;100.00;97920.22;5095658;28;20440;-87
2022/05/01 04:19:11;;;;;;;15.32;9.73;;;;;;;6.80;100.00;97918.84;5091804;28;20487;-89
2022/05/01 04:21:37;;;;;;;19.65;9.43;;;;;;;7.55;100.00;97922.72;5087825;28;20046;-88
2022/05/01 04:24:03;;;;;;;13.93;8.85;;;;;;;7.69;100.00;97931.91;5092769;28;20500;-88
2022/05/01 04:26:29;;;;;;;15.80;7.97;;;;;;;7.64;100.00;97950.72;5092500;28;20031;-88
2022/05/01 04:31:38;;;;;;;15.65;8.32;;;;;;;7.42;100.00;97936.59;5089487;28;20042;-88
2022/05/01 04:34:04;;;;;;;18.85;10.35;;;;;;;7.33;100.00;97942.31;5102314;28;20044;-88
2022/05/01 04:36:30;;;;;;;18.17;9.75;;;;;;;7.38;100.00;97929.72;5092163;28;20035;-88
2022/05/01 04:38:55;;;;;;;17.90;10.20;;;;;;;7.31;100.00;97905.16;5074254;28;20043;-89
2022/05/01 04:41:21;;;;;;;16.92;9.65;;;;;;;7.57;100.00;97930.63;5097215;28;20483;-90
2022/05/01 04:43:47;;;;;;;17.73;9.85;;;;;;;7.72;100.00;97927.28;5071966;28;20027;-89
2022/05/01 04:46:12;;;;;;;18.55;9.27;;;;;;;7.86;100.00;97940.00;5086555;28;20023;-89
2022/05/01 04:48:38;;;;;;;18.42;9.50;;;;;;;7.89;100.00;97930.06;5079518;28;20024;-88
2022/05/01 04:51:05;;;;;;;15.57;9.13;;;;;;;7.95;100.00;97940.44;5079398;28;20032;-89
2022/05/01 04:53:30;;;;;;;14.73;9.25;;;;;;;7.81;100.00;97921.56;5079220;28;20047;-89
2022/05/01 04:57:04;;;;;;;16.10;8.48;;;;;;;8.07;100.00;97929.22;5078907;28;20486;-89
2022/05/01 04:58:47;;;;;;;12.02;7.43;;;;;;;8.17;100.00;97941.19;5090903;28;20032;-88
2022/05/01 05:01:13;;;;;;;11.75;8.00;;;;;;;8.22;100.00;97932.09;5095934;28;20031;-88
2022/05/01 05:03:39;;;;;;;14.52;7.78;;;;;;;8.38;100.00;97954.47;5077713;28;20157;-88
2022/05/01 05:06:05;;;;;;;10.77;7.72;;;;;;;8.37;100.00;97932.28;5096186;28;20024;-89
2022/05/01 05:11:14;;;;;;;15.35;8.43;;;;;;;8.45;100.00;97938.16;5095940;28;20066;-89
2022/05/01 05:13:40;;;;;;;11.45;8.85;;;;;;;8.50;100.00;97937.91;5095733;28;20020;-89
2022/05/01 05:16:12;;;;;;;14.02;8.50;;;;;;;8.66;100.00;97933.59;5086888;28;20117;-89
2022/05/01 05:18:40;;;;;;;17.33;8.50;;;;;;;9.07;100.00;97959.13;5079728;28;20023;-89
2022/05/01 05:21:06;;;;;;;16.40;8.80;;;;;;;9.34;100.00;97939.97;5091945;28;20411;-89
2022/05/01 05:23:31;;;;;;;15.15;8.02;;;;;;;9.94;100.00;97949.28;5094232;28;20025;-89
2022/05/01 05:25:57;;;;;;;13.13;8.60;;;;;;;11.34;91.59;97941.38;5088097;28;20043;-89
2022/05/01 05:28:23;;;;;;;14.45;8.38;;;;;;;13.68;76.87;97921.09;5095915;28;20024;-90
2022/05/01 05:30:48;;;;;;;9.52;6.90;;;;;;;15.78;66.59;97931.78;5097189;28;20024;-90
2022/05/01 05:33:18;;;;;;;10.25;6.63;;;;;;;16.44;59.92;97921.09;5097522;28;20020;-90
2022/05/01 05:35:44;;;;;;;9.10;6.88;;;;;;;17.21;57.25;97916.63;5095987;28;20392;-91
2022/05/01 05:38:10;;;;;;;12.25;6.20;;;;;;;18.45;52.48;97915.91;5091917;28;20044;-91
2022/05/01 05:40:36;;;;;;;10.02;6.47;;;;;;;18.70;50.76;97908.19;5081848;28;20070;-89
2022/05/01 05:43:02;;;;;;;9.77;5.80;;;;;;;19.68;48.76;97902.88;5101812;28;20038;-90
2022/05/01 05:45:27;;;;;;;7.60;5.38;;;;;;;21.14;44.88;97892.34;5080280;28;20039;-90
2022/05/01 05:47:53;;;;;;;7.78;5.53;;;;;;;22.08;43.06;97906.28;5097374;28;20032;-89
2022/05/01 05:50:19;;;;;;;10.93;6.45;;;;;;;22.77;40.74;97883.59;5102278;28;20031;-90
2022/05/01 05:52:45;;;;;;;10.10;6.70;;;;;;;22.96;40.13;97904.31;5095207;28;20027;-90
2022/05/01 05:55:10;;;;;;;9.95;6.90;;;;;;;22.55;41.00;97893.16;5094354;28;20062;-89
2022/05/01 05:57:48;;;;;;;9.18;5.47;;;;;;;20.42;44.49;97914.84;5095685;28;20069;-89
2022/05/01 06:00:15;;;;;;;15.40;5.97;;;;;;;20.66;44.61;97911.59;5095896;28;20044;-89
2022/05/01 06:02:40;;;;;;;7.50;5.53;;;;;;;20.88;43.11;97889.47;5095914;28;20513;-90
2022/05/01 06:05:06;;;;;;;9.30;5.82;;;;;;;21.29;42.84;97896.25;5096089;28;20047;-90
2022/05/01 06:07:32;;;;;;;11.48;6.13;;;;;;;21.58;42.55;97895.06;5096224;28;20032;-89
2022/05/01 06:09:58;;;;;;;7.70;6.38;;;;;;;20.96;43.67;97893.13;5096254;28;20028;-89
2022/05/01 06:12:24;;;;;;;10.07;6.90;;;;;;;20.83;44.29;97913.53;5096324;28;20028;-89
2022/05/01 06:14:49;;;;;;;17.58;6.72;;;;;;;21.44;44.11;97903.75;5095507;28;20119;-89
2022/05/01 06:17:15;;;;;;;10.13;6.50;;;;;;;21.70;43.81;97909.31;5095451;28;20083;-90
2022/05/01 06:19:41;;;;;;;9.68;5.93;;;;;;;22.20;42.65;97895.13;5097245;28;20360;-90
2022/05/01 06:22:06;;;;;;;11.10;6.10;;;;;;;22.35;42.69;97909.88;5077534;28;20036;-93
2022/05/01 06:24:32;;;;;;;8.10;5.90;;;;;;;22.18;42.71;97902.63;5095499;28;20118;-91
2022/05/01 06:26:58;;;;;;;8.73;5.35;;;;;;;22.31;43.10;97928.44;5088186;27;20028;-91
2022/05/01 06:29:24;;;;;;;8.60;5.40;;;;;;;21.46;43.99;97933.56;5089273;28;20024;-77
2022/05/01 06:31:51;;;;;;;7.35;5.20;;;;;;;21.48;44.09;97926.94;5090804;28;20020;-76
2022/05/01 06:34:16;;;;;;;14.95;5.93;;;;;;;22.15;43.09;97920.13;5090714;28;20028;-76
2022/05/01 06:36:42;;;;;;;13.52;5.53;;;;;;;22.50;42.23;97925.50;5094924;28;20107;-76
2022/05/01 06:39:11;;;;;;;19.17;10.45;;;;;;;22.39;41.76;97928.50;5090634;28;20430;-76
2022/05/01 06:41:37;;;;;;;9.35;5.57;;;;;;;22.65;41.52;97917.63;5089323;28;20020;-77
2022/05/01 06:44:02;;;;;;;25.90;17.25;;;;;;;23.58;40.14;97906.63;5090814;28;20031;-76
2022/05/01 06:46:28;;;;;;;5.65;5.05;;;;;;;24.18;38.54;97896.28;5091392;28;20023;-75
2022/05/01 06:48:53;;;;;;;8.38;6.43;;;;;;;24.42;38.58;97894.56;5091285;28;20036;-74
2022/05/01 06:51:19;;;;;;;18.92;10.05;;;;;;;24.78;37.34;97890.38;5090995;28;20008;-74
2022/05/01 06:53:45;;;;;;;13.82;9.48;;;;;;;24.55;37.48;97897.63;5090997;28;20119;-75
2022/05/01 06:56:10;;;;;;;15.93;10.18;;;;;;;23.40;39.64;97899.56;5091011;28;20452;-76
2022/05/01 06:58:39;;;;;;;7.72;5.50;;;;;;;24.20;38.17;97885.19;5090896;28;20035;-76
2022/05/01 07:01:07;;;;;;;9.38;5.95;;;;;;;25.42;36.97;97885.69;5091243;28;20020;-76
2022/05/01 07:03:34;;;;;;;19.23;6.45;;;;;;;25.87;36.39;97883.06;5107828;28;20082;-76
2022/05/01 07:06:02;;;;;;;21.52;7.65;;;;;;;26.89;34.49;97879.72;5090599;28;20024;-76
2022/05/01 07:08:28;;;;;;;13.25;5.93;;;;;;;25.98;34.96;97876.28;5092000;28;20044;-75
2022/05/01 07:10:54;;;;;;;10.30;5.60;;;;;;;24.91;37.07;97885.25;5090601;28;20024;-76
2022/05/01 07:13:19;;;;;;;8.07;5.72;;;;;;;25.17;36.88;97887.69;5092051;28;20031;-75
2022/05/01 07:15:45;;;;;;;10.75;5.53;;;;;;;25.77;36.21;97885.16;5090392;28;20099;-77
2022/05/01 07:18:11;;;;;;;12.63;4.80;;;;;;;26.31;35.96;97883.22;5090375;28;20043;-76
2022/05/01 07:20:37;;;;;;;13.27;5.78;;;;;;;25.33;37.17;97891.22;5091496;28;20024;-77
2022/05/01 07:23:03;;;;;;;8.45;4.68;;;;;;;25.79;36.46;97883.94;5072412;28;20035;-76
2022/05/01 07:25:29;;;;;;;15.85;5.60;;;;;;;26.33;36.00;97879.22;5090305;28;20464;-76
2022/05/01 07:27:55;;;;;;;12.63;8.60;;;;;;;24.74;38.14;97878.94;5091536;28;20057;-76
2022/05/01 07:30:20;;;;;;;8.65;5.43;;;;;;;26.47;35.50;97871.22;5090572;28;20426;-76
2022/05/01 07:32:46;;;;;;;11.18;5.97;;;;;;;26.63;35.03;97880.16;5090568;28;20068;-77
2022/05/01 07:35:12;;;;;;;16.38;7.28;;;;;;;26.56;34.56;97867.38;5089911;28;20028;-77
2022/05/01 07:37:37;;;;;;;8.00;3.80;;;;;;;27.07;34.03;97855.47;5090395;28;20341;-77
2022/05/01 07:40:03;;;;;;;9.45;4.57;;;;;;;28.19;32.60;97863.16;5090050;28;20020;-77
2022/05/01 07:42:29;;;;;;;9.27;3.80;;;;;;;27.16;33.46;97851.59;5090106;28;20134;-77
2022/05/01 07:44:55;;;;;;;11.23;5.88;;;;;;;26.71;34.94;97865.47;5090355;28;20016;-77
2022/05/01 07:47:20;;;;;;;4.95;3.75;;;;;;;26.76;34.60;97874.03;5090208;28;20027;-77
2022/05/01 07:49:46;;;;;;;4.07;3.20;;;;;;;25.37;36.11;97863.47;5089703;28;20527;-77
2022/05/01 07:52:11;;;;;;;5.32;3.13;;;;;;;25.61;36.15;97864.22;5090066;28;20020;-76
2022/05/01 07:54:37;;;;;;;6.18;2.97;;;;;;;25.38;36.16;97860.53;5090954;28;20024;-77
2022/05/01 07:57:03;;;;;;;4.57;3.33;;;;;;;25.73;36.01;97867.38;5091301;28;20016;-77
2022/05/01 07:59:29;;;;;;;6.07;2.97;;;;;;;26.07;35.78;97875.16;5091275;28;20053;-77
2022/05/01 08:01:58;;;;;;;2.97;2.55;;;;;;;26.10;33.64;97866.56;5089753;28;20035;-76
2022/05/01 08:04:29;;;;;;;2.88;2.50;;;;;;;25.82;34.72;97864.38;5090967;28;20476;-76
2022/05/01 08:07:00;;;;;;;3.55;2.53;;;;;;;27.73;32.81;97850.81;5090992;28;20063;-76
2022/05/01 08:09:29;;;;;;;2.85;2.20;;;;;;;26.54;32.21;97842.00;5089733;28;20028;-78
2022/05/01 08:11:55;;;;;;;4.50;3.22;;;;;;;27.48;30.69;97830.22;5071742;28;20028;-76
2022/05/01 08:14:21;;;;;;;3.15;2.38;;;;;;;28.61;30.14;97828.34;5089843;28;20024;-77
2022/05/01 08:16:50;;;;;;;4.90;2.70;;;;;;;28.31;31.10;97827.66;5089740;28;20557;-78
2022/05/01 08:22:03;;;;;;;9.90;3.63;;;;;;;29.39;29.39;97828.81;5090212;28;20085;-77
2022/05/01 08:24:29;;;;;;;3.60;2.70;;;;;;;28.86;30.02;97822.16;5072757;28;20081;-77
2022/05/01 08:26:55;;;;;;;3.80;2.55;;;;;;;28.62;29.42;97810.75;5106449;28;20028;-77
2022/05/01 08:29:20;;;;;;;4.13;2.47;;;;;;;26.46;31.43;97811.88;5091037;28;20024;-76
2022/05/01 08:31:46;;;;;;;2.63;2.35;;;;;;;27.23;32.12;97810.44;5089378;28;21095;-76
2022/05/01 08:34:12;;;;;;;4.65;2.80;;;;;;;28.35;31.24;97817.97;5090915;28;20085;-77
2022/05/01 08:36:38;;;;;;;4.25;2.40;;;;;;;27.95;30.88;97803.88;5089291;28;20020;-77
2022/05/01 08:39:04;;;;;;;4.53;2.80;;;;;;;29.06;29.42;97811.25;5089185;28;20051;-77
2022/05/01 08:41:31;;;;;;;3.35;2.53;;;;;;;28.72;29.54;97797.50;5089413;28;20513;-77
2022/05/01 08:43:58;;;;;;;3.53;2.08;;;;;;;29.79;28.16;97795.81;5106116;28;20092;-77
2022/05/01 08:46:36;;;;;;;3.08;2.33;;;;;;;30.38;27.28;97788.44;5089734;28;20106;-77
2022/05/01 08:49:06;;;;;;;4.85;2.50;;;;;;;29.97;27.83;97787.78;5090497;28;20028;-77
2022/05/01 08:51:37;;;;;;;4.78;2.30;;;;;;;29.83;28.21;97775.91;5089341;28;20099;-76
2022/05/01 08:54:07;;;;;;;4.45;2.15;;;;;;;28.38;29.83;97785.41;5089023;28;20085;-77
2022/05/01 08:56:34;;;;;;;4.30;1.90;;;;;;;28.75;29.23;97780.56;5089138;28;20028;-77
2022/05/01 08:59:05;;;;;;;4.63;1.90;;;;;;;28.63;29.79;97769.25;5089021;28;20031;-78
2022/05/01 09:01:33;;;;;;;3.20;2.30;;;;;;;29.06;28.52;97767.16;5089073;28;20028;-76
2022/05/01 09:03:59;;;;;;;5.28;2.40;;;;;;;30.49;26.29;97759.31;5090151;28;20024;-76
2022/05/01 09:06:24;;;;;;;3.22;2.58;;;;;;;28.39;28.65;97765.06;5089212;28;20020;-76
2022/05/01 09:08:51;;;;;;;6.40;2.30;;;;;;;26.60;30.55;97767.16;5088989;28;20039;-76
2022/05/01 09:14:03;;;;;;;7.35;1.95;;;;;;;28.35;29.50;97752.78;5089142;28;20088;-77
2022/05/01 09:16:28;;;;;;;4.05;2.30;;;;;;;29.77;27.38;97745.50;5090409;28;20020;-77
2022/05/01 09:18:54;;;;;;;3.50;2.60;;;;;;;30.55;26.86;97737.22;5088957;28;20035;-77
2022/05/01 09:21:20;;;;;;;2.40;1.88;;;;;;;30.35;26.83;97739.16;5105952;28;20530;-77
2022/05/01 09:23:46;;;;;;;4.95;2.50;;;;;;;30.29;27.73;97744.69;5090844;28;20032;-77
2022/05/01 09:26:17;;;;;;;3.65;2.40;;;;;;;31.24;26.22;97732.94;5092665;28;20032;-77
2022/05/01 09:28:50;;;;;;;2.53;2.15;;;;;;;32.09;25.14;97724.94;5109498;28;20024;-78
2022/05/01 09:31:35;;;;;;;10.82;3.35;;;;;;;30.53;26.27;97711.75;5092585;28;20024;-77
2022/05/01 09:34:23;;;;;;;5.45;2.70;;;;;;;31.49;23.16;97704.31;5093359;28;20395;-77
2022/05/01 09:36:52;;;;;;;4.50;1.63;;;;;;;29.58;23.83;97695.66;5092113;28;20034;-77
2022/05/01 09:39:25;;;;;;;2.05;1.80;;;;;;;29.55;23.14;97692.44;5092302;28;20055;-78
2022/05/01 09:41:52;;;;;;;3.95;2.45;;;;;;;31.16;22.61;97678.75;5092124;28;20035;-76
2022/05/01 09:44:19;;;;;;;7.03;2.00;;;;;;;29.01;24.19;97689.75;5092266;28;20031;-78
2022/05/01 09:46:50;;;;;;;3.58;2.00;;;;;;;30.22;22.69;97680.34;5092290;28;20012;-78
2022/05/01 09:49:17;;;;;;;8.07;1.92;;;;;;;30.72;22.16;97678.72;5092097;28;20028;-78
2022/05/01 09:51:56;;;;;;;3.03;2.33;;;;;;;32.07;20.99;97670.88;5093441;28;20111;-76
2022/05/01 09:54:23;;;;;;;3.67;2.20;;;;;;;32.62;20.52;97657.94;5093376;28;20034;-76
2022/05/01 09:56:51;;;;;;;2.65;1.65;;;;;;;31.15;21.10;97649.41;5091904;28;20487;-77
2022/05/01 09:59:20;;;;;;;6.45;2.83;;;;;;;32.41;20.69;97658.38;5091841;28;20534;-77
2022/05/01 10:02:02;;;;;;;2.33;1.58;;;;;;;32.83;19.00;97649.13;5091976;28;20028;-77
2022/05/01 10:04:29;;;;;;;2.72;2.08;;;;;;;31.99;20.04;97651.75;5092197;28;20035;-77
2022/05/01 10:06:56;;;;;;;4.25;2.53;;;;;;;32.66;19.24;97643.41;5092148;28;20399;-77
2022/05/01 10:09:33;;;;;;;2.42;1.70;;;;;;;34.76;17.09;97626.03;5091743;28;20032;-76
2022/05/01 10:12:08;;;;;;;7.60;2.33;;;;;;;35.11;17.59;97628.72;5091562;28;20033;-77
2022/05/01 10:14:35;;;;;;;3.25;2.10;;;;;;;34.85;17.54;97613.41;5091940;28;20028;-77
2022/05/01 10:17:01;;;;;;;4.28;2.05;;;;;;;34.85;17.15;97610.63;5091825;28;20131;-76
2022/05/01 10:19:27;;;;;;;8.20;2.42;;;;;;;34.02;18.16;97609.31;5091543;28;20407;-76
2022/05/01 10:21:59;;;;;;;3.40;1.73;;;;;;;34.73;16.71;97612.63;5091368;28;20043;-76
2022/05/01 10:24:25;;;;;;;3.08;2.08;;;;;;;35.28;16.95;97606.50;5091504;28;20101;-76
2022/05/01 10:27:04;;;;;;;3.30;1.50;;;;;;;35.23;16.31;97596.09;5091297;28;20619;-76
2022/05/01 10:32:20;;;;;;;1.85;1.60;;;;;;;35.10;16.70;97590.84;5092780;28;20024;-76
2022/05/01 10:33:24;;;;;;;3.05;1.80;;;;;;;33.01;18.83;97596.41;5092502;28;20081;-76
2022/05/01 10:36:09;;;;;;;11.55;1.92;;;;;;;29.92;20.18;97588.91;5043773;28;20041;-76
2022/05/01 10:38:50;;;;;;;2.50;1.70;;;;;;;29.22;21.10;97595.91;5050007;28;20538;-76
2022/05/01 10:41:17;;;;;;;2.65;1.65;;;;;;;28.06;21.74;97582.41;5079158;28;20116;-77
2022/05/01 10:43:56;;;;;;;2.72;2.05;;;;;;;29.15;21.23;97584.03;5074389;28;20086;-77
2022/05/01 10:46:22;;;;;;;5.13;1.50;;;;;;;28.53;22.10;97579.66;5090818;28;20418;-76
2022/05/01 10:48:48;;;;;;;4.53;1.50;;;;;;;29.72;21.56;97572.34;5092409;28;20032;-76
2022/05/01 10:51:36;;;;;;;2.88;2.00;;;;;;;29.94;20.98;97565.56;5090598;28;20056;-76
2022/05/01 10:54:11;;;;;;;9.65;1.92;;;;;;;32.22;19.52;97568.88;5107583;28;20403;-76
2022/05/01 10:56:37;;;;;;;6.47;3.40;;;;;;;29.08;21.08;97568.53;5092211;28;20460;-76
2022/05/01 10:59:33;;;;;;;2.42;1.63;;;;;;;28.95;20.85;97569.38;5090693;28;20078;-76
2022/05/01 11:02:06;;;;;;;4.38;2.10;;;;;;;28.42;21.62;97565.63;5092087;28;20562;-76
2022/05/01 11:04:36;;;;;;;6.50;3.20;;;;;;;27.40;22.92;97564.59;5090712;28;20445;-76
2022/05/01 11:07:03;;;;;;;5.28;1.90;;;;;;;26.15;23.35;97557.81;5091941;28;20040;-77
2022/05/01 11:09:33;;;;;;;4.45;1.75;;;;;;;24.70;25.06;97562.88;5090652;28;20028;-76
2022/05/01 11:11:59;;;;;;;4.57;2.42;;;;;;;24.18;26.73;97568.19;5090426;28;20089;-76
2022/05/01 11:14:35;;;;;;;3.10;2.20;;;;;;;23.76;26.47;97551.28;5090295;28;20040;-76
2022/05/01 11:17:04;;;;;;;3.97;1.88;;;;;;;24.32;26.38;97560.25;5090713;28;20028;-76
2022/05/01 11:19:33;;;;;;;3.33;1.88;;;;;;;26.28;23.74;97552.50;5090737;28;20032;-76
2022/05/01 11:21:59;;;;;;;5.03;1.60;;;;;;;28.24;21.87;97540.59;5090905;28;20039;-76
2022/05/01 11:24:42;;;;;;;1.80;1.48;;;;;;;29.37;20.91;97546.97;5090245;28;20035;-77
2022/05/01 11:27:10;;;;;;;6.43;1.77;;;;;;;27.94;21.87;97537.25;5091747;28;20459;-76
2022/05/01 11:29:36;;;;;;;4.22;2.13;;;;;;;27.41;22.83;97538.78;5091481;28;20024;-76
2022/05/01 11:32:19;;;;;;;8.23;1.80;;;;;;;27.14;23.45;97542.38;5090385;28;20115;-76
2022/05/01 11:34:49;;;;;;;4.40;1.30;;;;;;;26.95;23.82;97554.91;5090426;28;20133;-76
2022/05/01 11:37:15;;;;;;;3.90;1.45;;;;;;;26.89;22.27;97536.47;5090171;28;20055;-75
2022/05/01 11:39:48;;;;;;;5.13;1.60;;;;;;;26.47;23.22;97540.06;5090073;28;20115;-75
2022/05/01 11:42:25;;;;;;;1.92;1.33;;;;;;;26.73;22.56;97529.31;5091314;28;20054;-76
2022/05/01 11:44:53;;;;;;;2.13;1.30;;;;;;;27.56;22.05;97519.50;5107429;28;20028;-76
2022/05/01 11:47:19;;;;;;;3.05;1.40;;;;;;;27.04;21.90;97508.94;5090073;28;20408;-75
2022/05/01 11:49:45;;;;;;;3.13;1.13;;;;;;;26.15;23.08;97516.69;5089753;28;20034;-75
2022/05/01 11:52:12;;;;;;;2.08;1.38;;;;;;;26.28;22.91;97518.72;5089821;28;20024;-75
2022/05/01 11:54:47;;;;;;;3.17;1.58;;;;;;;27.72;21.93;97513.66;5089688;28;20024;-76
2022/05/01 12:02:46;;;;;;;5.05;1.50;;;;;;;32.31;18.06;97495.47;5089923;28;20062;-76
2022/05/01 12:05:11;;;;;;;4.93;2.65;;;;;;;32.51;18.19;97496.06;5091157;28;20059;-76
2022/05/01 12:07:37;;;;;;;1.52;1.40;;;;;;;30.67;19.12;97480.47;5089860;28;20016;-75